createdAt,value
2023-02-08T00:00:58.236Z,9.667940
2023-02-08T00:01:59.011Z,9.667933
2023-02-08T00:02:58.301Z,9.667935
2023-02-08T00:03:58.290Z,9.667976
2023-02-08T00:04:58.235Z,9.667897
2023-02-08T00:05:58.213Z,9.667961
2023-02-08T00:06:58.216Z,9.668000
2023-02-08T00:07:58.208Z,9.667931
2023-02-08T00:08:58.196Z,9.667957
2023-02-08T00:09:58.180Z,9.667959
2023-02-08T00:10:58.206Z,9.667947
2023-02-08T00:11:58.217Z,9.668009
2023-02-08T00:12:58.169Z,9.667894
2023-02-08T00:13:58.163Z,9.667871
2023-02-08T00:14:58.144Z,9.667880
2023-02-08T00:15:58.202Z,9.667888
2023-02-08T00:16:58.137Z,9.667994
2023-02-08T00:17:58.122Z,9.667935
2023-02-08T00:18:58.103Z,9.667944
2023-02-08T00:20:30.060Z,9.667907
2023-02-08T00:20:58.190Z,9.667822
2023-02-08T00:21:58.108Z,9.667883
2023-02-08T00:22:59.128Z,9.667938
2023-02-08T00:23:58.085Z,9.667896
2023-02-08T00:24:58.053Z,9.667882
2023-02-08T00:25:58.144Z,9.667892
2023-02-08T00:26:58.071Z,9.667909
2023-02-08T00:27:58.119Z,9.667928
2023-02-08T00:28:59.020Z,9.667946
2023-02-08T00:29:58.040Z,9.667938
2023-02-08T00:30:58.229Z,9.667912
2023-02-08T00:31:58.068Z,9.667935
2023-02-08T00:32:58.144Z,9.667937
2023-02-08T00:33:58.040Z,9.667940
2023-02-08T00:34:58.011Z,9.667990
2023-02-08T00:35:58.041Z,9.667876
2023-02-08T00:36:57.979Z,9.667996
2023-02-08T00:37:57.992Z,9.667983
2023-02-08T00:38:57.958Z,9.668052
2023-02-08T00:39:58.608Z,9.667976
2023-02-08T00:40:58.141Z,9.667994
2023-02-08T00:41:57.943Z,9.668014
2023-02-08T00:42:57.947Z,9.667977
2023-02-08T00:43:58.045Z,9.667935
2023-02-08T00:44:57.947Z,9.668031
2023-02-08T00:45:57.923Z,9.668007
2023-02-08T00:46:57.914Z,9.668027
2023-02-08T00:47:57.922Z,9.668085
2023-02-08T00:48:57.919Z,9.667998
2023-02-08T00:49:57.899Z,9.668006
2023-02-08T00:50:57.869Z,9.668003
2023-02-08T00:51:57.867Z,9.668010
2023-02-08T00:52:57.876Z,9.667988
2023-02-08T00:53:57.890Z,9.667976
2023-02-08T00:54:57.866Z,9.668002
2023-02-08T00:55:57.880Z,9.668017
2023-02-08T00:56:57.828Z,9.667983
2023-02-08T00:57:57.840Z,9.667998
2023-02-08T00:58:58.092Z,9.668027
2023-02-08T00:59:57.841Z,9.668044
2023-02-08T01:00:57.852Z,9.667962
2023-02-08T01:01:57.900Z,9.668018
2023-02-08T01:02:57.782Z,9.667998
2023-02-08T01:03:57.789Z,9.668053
2023-02-08T01:04:57.763Z,9.668014
2023-02-08T01:05:57.764Z,9.668080
2023-02-08T01:06:57.748Z,9.668016
2023-02-08T01:07:57.740Z,9.668030
2023-02-08T01:08:57.792Z,9.668022
2023-02-08T01:09:57.755Z,9.668036
2023-02-08T01:10:57.738Z,9.668065
2023-02-08T01:11:57.729Z,9.668043
2023-02-08T01:12:57.914Z,9.668000
2023-02-08T01:13:57.769Z,9.667980
2023-02-08T01:14:57.754Z,9.667977
2023-02-08T01:15:57.724Z,9.668094
2023-02-08T01:16:57.699Z,9.668042
2023-02-08T01:17:57.712Z,9.668068
2023-02-08T01:18:57.696Z,9.668092
2023-02-08T01:19:59.147Z,9.667910
2023-02-08T01:20:57.687Z,9.667974
2023-02-08T01:21:57.702Z,9.668051
2023-02-08T01:22:57.664Z,9.668082
2023-02-08T01:23:57.649Z,9.668018
2023-02-08T01:24:57.657Z,9.668000
2023-02-08T01:25:58.602Z,9.668023
2023-02-08T01:26:57.653Z,9.667980
2023-02-08T01:27:57.665Z,9.667863
2023-02-08T01:28:57.581Z,9.667888
2023-02-08T01:29:57.593Z,9.667937
2023-02-08T01:30:57.626Z,9.668043
2023-02-08T01:31:57.604Z,9.668144
2023-02-08T01:32:57.589Z,9.667959
2023-02-08T01:33:57.606Z,9.667962
2023-02-08T01:34:57.611Z,9.668005
2023-02-08T01:35:57.562Z,9.668023
2023-02-08T01:36:57.559Z,9.668099
2023-02-08T01:37:57.545Z,9.667868
2023-02-08T01:38:57.524Z,9.667918
2023-02-08T01:39:57.523Z,9.668056
2023-02-08T01:40:57.529Z,9.668050
2023-02-08T01:41:57.520Z,9.668087
2023-02-08T01:42:57.497Z,9.668060
2023-02-08T01:43:57.632Z,9.668018
2023-02-08T01:44:57.491Z,9.667983
2023-02-08T01:45:57.494Z,9.667959
2023-02-08T01:46:57.544Z,9.667955
2023-02-08T01:47:57.487Z,9.667963
2023-02-08T01:48:57.490Z,9.668029
2023-02-08T01:49:57.490Z,9.668075
2023-02-08T01:50:57.475Z,9.668038
2023-02-08T01:51:57.456Z,9.667996
2023-02-08T01:52:57.473Z,9.668026
2023-02-08T01:53:57.427Z,9.668049
2023-02-08T01:54:57.444Z,9.668035
2023-02-08T01:55:58.139Z,9.668069
2023-02-08T01:56:57.394Z,9.668041
2023-02-08T01:57:57.440Z,9.668065
2023-02-08T01:58:57.444Z,9.668047
2023-02-08T01:59:57.662Z,9.668048
2023-02-08T02:00:57.387Z,9.668044
2023-02-08T02:01:57.389Z,9.668015
2023-02-08T02:02:57.353Z,9.668024
2023-02-08T02:03:57.344Z,9.668007
2023-02-08T02:04:57.353Z,9.668039
2023-02-08T02:05:57.337Z,9.668015
2023-02-08T02:06:57.321Z,9.668001
2023-02-08T02:07:57.306Z,9.667941
2023-02-08T02:08:57.307Z,9.667994
2023-02-08T02:09:57.322Z,9.668039
2023-02-08T02:10:58.074Z,9.667988
2023-02-08T02:11:58.307Z,9.667975
2023-02-08T02:12:57.270Z,9.667970
2023-02-08T02:13:57.279Z,9.667950
2023-02-08T02:14:57.259Z,9.667982
2023-02-08T02:15:57.256Z,9.667996
2023-02-08T02:16:57.268Z,9.668040
2023-02-08T02:17:57.232Z,9.667985
2023-02-08T02:18:57.582Z,9.668045
2023-02-08T02:19:57.221Z,9.668028
2023-02-08T02:20:57.224Z,9.668035
2023-02-08T02:21:57.332Z,9.668019
2023-02-08T02:22:57.336Z,9.667995
2023-02-08T02:23:57.198Z,9.667999
2023-02-08T02:24:57.192Z,9.668014
2023-02-08T02:25:57.188Z,9.668004
2023-02-08T02:26:57.184Z,9.668026
2023-02-08T02:27:57.288Z,9.668013
2023-02-08T02:28:57.175Z,9.668021
2023-02-08T02:29:57.178Z,9.668023
2023-02-08T02:30:57.134Z,9.668002
2023-02-08T02:31:57.276Z,9.667979
2023-02-08T02:32:57.163Z,9.667974
2023-02-08T02:33:57.137Z,9.667980
2023-02-08T02:34:57.109Z,9.667975
2023-02-08T02:35:57.120Z,9.667969
2023-02-08T02:36:57.127Z,9.667943
2023-02-08T02:37:57.101Z,9.668001
2023-02-08T02:38:57.085Z,9.667980
2023-02-08T02:39:57.075Z,9.667973
2023-02-08T02:40:57.191Z,9.667988
2023-02-08T02:41:57.082Z,9.667995
2023-02-08T02:42:57.109Z,9.668003
2023-02-08T02:43:57.041Z,9.667976
2023-02-08T02:44:57.039Z,9.667968
2023-02-08T02:45:57.167Z,9.667977
2023-02-08T02:46:57.100Z,9.667974
2023-02-08T02:47:57.043Z,9.667996
2023-02-08T02:48:57.013Z,9.667986
2023-02-08T02:49:57.010Z,9.667998
2023-02-08T02:50:57.006Z,9.667996
2023-02-08T02:51:57.055Z,9.668003
2023-02-08T02:52:56.993Z,9.668020
2023-02-08T02:53:56.990Z,9.668029
2023-02-08T02:54:57.019Z,9.667974
2023-02-08T02:55:56.966Z,9.667958
2023-02-08T02:56:56.974Z,9.667952
2023-02-08T02:57:56.972Z,9.667969
2023-02-08T02:58:56.946Z,9.667930
2023-02-08T02:59:56.991Z,9.667936
2023-02-08T03:00:56.961Z,9.667980
2023-02-08T03:01:56.920Z,9.667976
2023-02-08T03:02:56.969Z,9.667964
2023-02-08T03:03:56.927Z,9.667933
2023-02-08T03:04:56.905Z,9.667935
2023-02-08T03:05:56.890Z,9.667995
2023-02-08T03:06:56.894Z,9.668023
2023-02-08T03:07:56.916Z,9.668029
2023-02-08T03:08:56.883Z,9.668039
2023-02-08T03:09:56.905Z,9.667952
2023-02-08T03:10:56.854Z,9.667935
2023-02-08T03:11:56.892Z,9.667925
2023-02-08T03:12:56.882Z,9.667956
2023-02-08T03:13:56.854Z,9.667953
2023-02-08T03:14:56.847Z,9.668054
2023-02-08T03:15:56.868Z,9.667963
2023-02-08T03:16:56.896Z,9.667939
2023-02-08T03:17:56.808Z,9.668002
2023-02-08T03:18:56.818Z,9.668005
2023-02-08T03:19:56.797Z,9.667980
2023-02-08T03:20:56.816Z,9.668014
2023-02-08T03:21:56.793Z,9.667978
2023-02-08T03:22:56.790Z,9.668044
2023-02-08T03:23:56.817Z,9.667964
2023-02-08T03:24:56.769Z,9.667957
2023-02-08T03:25:56.846Z,9.667960
2023-02-08T03:26:56.763Z,9.668012
2023-02-08T03:27:56.806Z,9.667959
2023-02-08T03:28:56.828Z,9.668007
2023-02-08T03:29:56.718Z,9.668098
2023-02-08T03:30:56.800Z,9.668002
2023-02-08T03:31:56.867Z,9.668025
2023-02-08T03:32:56.721Z,9.668000
2023-02-08T03:33:56.709Z,9.668003
2023-02-08T03:34:56.701Z,9.667982
2023-02-08T03:35:56.711Z,9.667998
2023-02-08T03:36:56.674Z,9.667986
2023-02-08T03:37:56.680Z,9.668031
2023-02-08T03:38:56.668Z,9.667949
2023-02-08T03:39:56.668Z,9.667994
2023-02-08T03:40:56.678Z,9.667995
2023-02-08T03:41:56.712Z,9.668068
2023-02-08T03:42:56.646Z,9.668032
2023-02-08T03:43:56.625Z,9.668024
2023-02-08T03:44:56.615Z,9.668081
2023-02-08T03:45:56.659Z,9.668013
2023-02-08T03:46:56.649Z,9.668081
2023-02-08T04:07:08.156Z,9.668085
2023-02-08T04:08:08.148Z,9.668055
2023-02-08T04:09:08.121Z,9.667991
2023-02-08T04:10:08.123Z,9.667979
2023-02-08T04:11:08.097Z,9.668035
2023-02-08T04:12:08.122Z,9.667983
2023-02-08T04:13:08.083Z,9.667988
2023-02-08T04:14:08.121Z,9.668042
2023-02-08T04:15:08.065Z,9.668130
2023-02-08T04:16:08.791Z,9.668033
2023-02-08T04:17:08.082Z,9.668013
2023-02-08T04:18:08.048Z,9.668048
2023-02-08T04:19:08.040Z,9.667988
2023-02-08T04:20:08.054Z,9.667966
2023-02-08T04:21:08.073Z,9.667981
2023-02-08T04:22:08.028Z,9.667979
2023-02-08T04:23:08.004Z,9.667937
2023-02-08T04:24:08.000Z,9.667981
2023-02-08T04:25:08.062Z,9.667897
2023-02-08T04:26:07.997Z,9.667965
2023-02-08T04:27:07.985Z,9.668011
2023-02-08T04:28:08.097Z,9.667996
2023-02-08T04:29:07.969Z,9.668021
2023-02-08T04:30:07.963Z,9.667970
2023-02-08T04:31:08.823Z,9.668007
2023-02-08T04:32:07.988Z,9.668049
2023-02-08T04:33:07.948Z,9.668039
2023-02-08T04:34:07.970Z,9.668028
2023-02-08T04:35:07.915Z,9.668030
2023-02-08T04:36:07.946Z,9.667994
2023-02-08T04:37:07.932Z,9.668002
2023-02-08T04:38:07.900Z,9.668047
2023-02-08T04:39:07.886Z,9.668024
2023-02-08T04:40:07.890Z,9.668031
2023-02-08T04:41:07.905Z,9.668022
2023-02-08T04:42:07.888Z,9.668022
2023-02-08T04:43:07.883Z,9.668012
2023-02-08T04:44:07.885Z,9.667998
2023-02-08T04:45:07.917Z,9.667974
2023-02-08T04:46:07.858Z,9.668034
2023-02-08T04:47:07.876Z,9.668027
2023-02-08T04:48:07.831Z,9.667987
2023-02-08T04:49:07.816Z,9.668069
2023-02-08T04:50:07.837Z,9.668010
2023-02-08T04:51:07.840Z,9.668011
2023-02-08T04:52:07.803Z,9.668028
2023-02-08T04:53:07.823Z,9.668083
2023-02-08T04:54:07.804Z,9.668001
2023-02-08T04:55:07.793Z,9.668001
2023-02-08T04:56:07.826Z,9.667976
2023-02-08T04:57:07.804Z,9.667980
2023-02-08T04:58:07.797Z,9.667970
2023-02-08T04:59:07.754Z,9.667959
2023-02-08T05:00:07.790Z,9.667951
2023-02-08T05:01:07.741Z,9.667994
2023-02-08T05:02:07.725Z,9.667974
2023-02-08T05:03:07.735Z,9.667965
2023-02-08T05:04:07.738Z,9.668008
2023-02-08T05:05:07.801Z,9.668013
2023-02-08T05:06:07.699Z,9.668034
2023-02-08T05:07:07.688Z,9.667979
2023-02-08T05:08:07.674Z,9.668020
2023-02-08T05:09:07.705Z,9.667967
2023-02-08T05:10:07.731Z,9.667988
2023-02-08T05:11:07.680Z,9.668057
2023-02-08T05:12:07.645Z,9.668006
2023-02-08T05:13:07.641Z,9.668007
2023-02-08T05:14:07.634Z,9.667996
2023-02-08T05:15:07.656Z,9.668003
2023-02-08T05:16:07.714Z,9.667960
2023-02-08T05:17:07.628Z,9.667971
2023-02-08T05:18:07.617Z,9.667974
2023-02-08T05:19:07.596Z,9.667962
2023-02-08T05:20:07.605Z,9.667956
2023-02-08T05:21:07.615Z,9.667995
2023-02-08T05:22:07.594Z,9.667987
2023-02-08T05:23:07.585Z,9.667964
2023-02-08T05:24:07.603Z,9.667982
2023-02-08T05:25:39.485Z,9.667943
2023-02-08T05:26:07.549Z,9.667956
2023-02-08T05:27:07.565Z,9.667933
2023-02-08T05:28:07.574Z,9.667940
2023-02-08T05:29:07.541Z,9.667958
2023-02-08T05:30:07.526Z,9.667946
2023-02-08T05:31:39.563Z,9.667944
2023-02-08T05:32:07.520Z,9.667991
2023-02-08T05:33:07.514Z,9.667931
2023-02-08T05:34:07.514Z,9.668013
2023-02-08T05:35:07.484Z,9.667971
2023-02-08T05:36:07.497Z,9.667974
2023-02-08T05:37:07.456Z,9.667953
2023-02-08T05:38:07.473Z,9.667980
2023-02-08T05:39:07.455Z,9.667955
2023-02-08T05:40:07.462Z,9.667994
2023-02-08T05:41:07.465Z,9.667945
2023-02-08T05:42:07.431Z,9.667980
2023-02-08T05:43:07.487Z,9.668020
2023-02-08T05:44:07.425Z,9.668047
2023-02-08T05:45:07.407Z,9.667956
2023-02-08T05:46:07.439Z,9.668083
2023-02-08T05:47:07.499Z,9.667999
2023-02-08T05:48:07.415Z,9.667995
2023-02-08T05:49:07.376Z,9.667952
2023-02-08T05:50:07.388Z,9.668068
2023-02-08T05:51:07.365Z,9.668039
2023-02-08T05:52:07.352Z,9.668024
2023-02-08T05:53:07.376Z,9.668077
2023-02-08T05:54:07.350Z,9.668086
2023-02-08T05:55:07.324Z,9.667985
2023-02-08T05:56:07.314Z,9.668057
2023-02-08T05:57:07.368Z,9.668111
2023-02-08T05:58:07.358Z,9.668017
2023-02-08T05:59:07.358Z,9.668060
2023-02-08T06:00:07.331Z,9.668022
2023-02-08T06:01:07.328Z,9.667976
2023-02-08T06:02:07.335Z,9.668034
2023-02-08T06:03:07.339Z,9.668044
2023-02-08T06:04:07.311Z,9.668001
2023-02-08T06:05:07.323Z,9.668002
2023-02-08T06:06:07.267Z,9.667951
2023-02-08T06:07:07.254Z,9.667980
2023-02-08T06:08:07.303Z,9.668000
2023-02-08T06:09:07.243Z,9.667986
2023-02-08T06:10:07.302Z,9.667993
2023-02-08T06:11:07.207Z,9.667995
2023-02-08T06:12:07.202Z,9.667977
2023-02-08T06:13:07.223Z,9.667966
2023-02-08T06:14:07.207Z,9.667967
2023-02-08T06:15:07.210Z,9.668001
2023-02-08T06:16:07.248Z,9.668025
2023-02-08T06:17:07.216Z,9.667973
2023-02-08T06:18:07.163Z,9.668007
2023-02-08T06:19:07.173Z,9.668029
2023-02-08T06:20:39.531Z,9.667998
2023-02-08T06:21:07.128Z,9.668055
2023-02-08T06:22:07.141Z,9.668110
2023-02-08T06:23:07.125Z,9.668097
2023-02-08T06:24:07.115Z,9.668095
2023-02-08T06:25:08.133Z,9.668041
2023-02-08T06:26:07.133Z,9.668042
2023-02-08T06:27:07.160Z,9.668009
2023-02-08T06:28:07.143Z,9.668026
2023-02-08T06:29:07.107Z,9.668042
2023-02-08T06:30:07.066Z,9.668008
2023-02-08T06:31:07.090Z,9.668009
2023-02-08T06:32:07.176Z,9.667995
2023-02-08T06:33:07.059Z,9.667966
2023-02-08T06:34:07.060Z,9.668020
2023-02-08T06:35:07.034Z,9.667923
2023-02-08T06:36:07.056Z,9.667903
2023-02-08T06:37:07.016Z,9.667923
2023-02-08T06:38:07.026Z,9.667870
2023-02-08T06:39:07.011Z,9.667872
2023-02-08T06:40:07.008Z,9.667835
2023-02-08T06:41:07.028Z,9.667835
2023-02-08T06:42:06.981Z,9.667868
2023-02-08T06:43:07.014Z,9.667919
2023-02-08T06:44:06.980Z,9.667916
2023-02-08T06:45:06.986Z,9.667999
2023-02-08T06:46:06.999Z,9.667974
2023-02-08T06:47:06.960Z,9.667864
2023-02-08T06:48:06.962Z,9.667843
2023-02-08T06:49:06.938Z,9.667951
2023-02-08T06:50:06.940Z,9.667942
2023-02-08T06:51:06.927Z,9.668000
2023-02-08T06:52:06.937Z,9.667963
2023-02-08T06:53:06.920Z,9.667943
2023-02-08T06:54:06.913Z,9.668010
2023-02-08T06:55:06.877Z,9.667993
2023-02-08T06:56:06.879Z,9.667994
2023-02-08T06:57:06.891Z,9.667994
2023-02-08T06:58:06.912Z,9.668047
2023-02-08T06:59:06.847Z,9.668030
2023-02-08T07:00:06.851Z,9.668043
2023-02-08T07:01:06.854Z,9.668015
2023-02-08T07:02:06.924Z,9.668040
2023-02-08T07:03:06.843Z,9.668039
2023-02-08T07:04:06.817Z,9.668056
2023-02-08T07:05:06.849Z,9.668035
2023-02-08T07:06:06.790Z,9.668019
2023-02-08T07:07:06.826Z,9.668045
2023-02-08T07:08:06.781Z,9.668056
2023-02-08T07:09:06.798Z,9.668020
2023-02-08T07:10:06.777Z,9.668003
2023-02-08T07:11:06.759Z,9.668032
2023-02-08T07:12:06.784Z,9.667997
2023-02-08T07:13:06.765Z,9.668009
2023-02-08T07:14:06.823Z,9.668003
2023-02-08T07:15:06.769Z,9.668035
2023-02-08T07:16:06.739Z,9.668033
2023-02-08T07:17:06.757Z,9.668034
2023-02-08T07:18:06.720Z,9.668022
2023-02-08T07:19:06.750Z,9.668016
2023-02-08T07:20:06.705Z,9.668043
2023-02-08T07:21:06.711Z,9.668001
2023-02-08T07:22:07.552Z,9.667937
2023-02-08T07:23:07.682Z,9.667923
2023-02-08T07:24:06.666Z,9.667969
2023-02-08T07:25:06.690Z,9.667956
2023-02-08T07:26:06.670Z,9.667918
2023-02-08T07:27:06.691Z,9.667989
2023-02-08T07:28:06.693Z,9.667996
2023-02-08T07:29:06.623Z,9.667988
2023-02-08T07:30:06.627Z,9.668085
2023-02-08T07:31:06.731Z,9.667953
2023-02-08T07:32:06.684Z,9.668030
2023-02-08T07:33:06.616Z,9.668016
2023-02-08T07:34:06.639Z,9.667952
2023-02-08T07:35:06.615Z,9.667878
2023-02-08T07:36:06.598Z,9.667917
2023-02-08T07:37:06.599Z,9.667901
2023-02-08T07:38:06.624Z,9.668011
2023-02-08T07:39:06.553Z,9.667995
2023-02-08T07:40:06.572Z,9.668083
2023-02-08T07:41:06.556Z,9.668077
2023-02-08T07:42:06.574Z,9.668017
2023-02-08T07:43:06.553Z,9.668086
2023-02-08T07:44:06.528Z,9.668077
2023-02-08T07:45:06.518Z,9.668086
2023-02-08T07:46:06.544Z,9.668139
2023-02-08T07:47:06.501Z,9.668078
2023-02-08T07:48:06.528Z,9.668087
2023-02-08T07:49:06.547Z,9.668121
2023-02-08T07:50:06.495Z,9.668106
2023-02-08T07:51:07.259Z,9.668106
2023-02-08T07:52:06.518Z,9.668098
2023-02-08T07:53:06.520Z,9.668067
2023-02-08T07:54:06.453Z,9.668089
2023-02-08T07:55:06.448Z,9.668118
2023-02-08T07:56:06.433Z,9.668117
2023-02-08T07:57:06.440Z,9.668090
2023-02-08T07:58:06.447Z,9.668064
2023-02-08T07:59:06.416Z,9.668043
2023-02-08T08:00:06.407Z,9.668067
2023-02-08T08:01:20.891Z,9.668009
2023-02-08T08:02:08.396Z,9.667969
2023-02-08T08:03:07.399Z,9.668038
2023-02-08T08:04:06.479Z,9.668002
2023-02-08T08:05:06.405Z,9.668022
2023-02-08T08:06:06.374Z,9.668058
2023-02-08T08:07:06.346Z,9.668037
2023-02-08T08:08:06.378Z,9.668058
2023-02-08T08:09:06.344Z,9.668036
2023-02-08T08:10:06.352Z,9.668048
2023-02-08T08:11:06.321Z,9.668059
2023-02-08T08:12:06.326Z,9.668053
2023-02-08T08:13:06.310Z,9.668045
2023-02-08T08:14:06.306Z,9.668071
2023-02-08T08:15:06.307Z,9.668075
2023-02-08T08:16:06.344Z,9.668073
2023-02-08T08:17:06.395Z,9.668077
2023-02-08T08:18:06.408Z,9.668072
2023-02-08T08:19:06.262Z,9.668097
2023-02-08T08:20:06.270Z,9.668097
2023-02-08T08:21:06.248Z,9.668084
2023-02-08T08:22:06.253Z,9.668115
2023-02-08T08:23:06.236Z,9.668143
2023-02-08T08:24:06.228Z,9.668085
2023-02-08T08:25:06.234Z,9.668090
2023-02-08T08:26:06.211Z,9.668020
2023-02-08T08:27:06.283Z,9.668053
2023-02-08T08:28:06.249Z,9.668027
2023-02-08T08:29:06.211Z,9.668094
2023-02-08T08:30:06.175Z,9.668095
2023-02-08T08:31:06.280Z,9.668097
2023-02-08T08:32:06.167Z,9.668106
2023-02-08T08:33:06.171Z,9.668066
2023-02-08T08:34:06.188Z,9.668070
2023-02-08T08:35:06.141Z,9.668052
2023-02-08T08:36:06.167Z,9.668077
2023-02-08T08:37:06.148Z,9.668110
2023-02-08T08:38:06.136Z,9.668066
2023-02-08T08:39:06.167Z,9.668087
2023-02-08T08:40:06.093Z,9.668118
2023-02-08T08:41:06.124Z,9.668060
2023-02-08T08:42:06.089Z,9.668117
2023-02-08T08:43:06.079Z,9.668141
2023-02-08T08:44:06.108Z,9.668074
2023-02-08T08:45:06.061Z,9.668117
2023-02-08T08:46:06.082Z,9.668121
2023-02-08T08:47:06.057Z,9.668086
2023-02-08T08:48:06.077Z,9.668057
2023-02-08T08:49:06.045Z,9.668069
2023-02-08T08:50:06.030Z,9.668045
2023-02-08T08:51:06.026Z,9.668094
2023-02-08T08:52:06.015Z,9.668125
2023-02-08T08:53:06.039Z,9.668092
2023-02-08T08:54:06.042Z,9.668097
2023-02-08T08:55:06.004Z,9.668075
2023-02-08T08:56:06.001Z,9.668057
2023-02-08T08:57:05.977Z,9.668090
2023-02-08T08:58:05.985Z,9.668075
2023-02-08T08:59:05.991Z,9.668069
2023-02-08T09:00:05.968Z,9.668065
2023-02-08T09:01:05.973Z,9.668060
2023-02-08T09:02:05.994Z,9.668096
2023-02-08T09:03:05.985Z,9.668118
2023-02-08T09:04:05.933Z,9.668106
2023-02-08T09:05:05.946Z,9.668102
2023-02-08T09:06:05.936Z,9.668125
2023-02-08T09:07:05.920Z,9.668091
2023-02-08T09:08:05.887Z,9.668090
2023-02-08T09:09:05.905Z,9.668071
2023-02-08T09:10:05.885Z,9.668079
2023-02-08T09:11:05.849Z,9.668097
2023-02-08T09:12:05.867Z,9.668098
2023-02-08T09:13:05.892Z,9.668132
2023-02-08T09:14:05.859Z,9.668157
2023-02-08T09:15:05.833Z,9.668120
2023-02-08T09:16:06.393Z,9.668113
2023-02-08T09:17:05.810Z,9.668110
2023-02-08T09:18:05.823Z,9.668098
2023-02-08T09:19:05.799Z,9.668093
2023-02-08T09:20:05.781Z,9.668095
2023-02-08T09:21:05.771Z,9.668066
2023-02-08T09:22:05.805Z,9.668085
2023-02-08T09:23:05.784Z,9.668108
2023-02-08T09:24:05.788Z,9.668095
2023-02-08T09:25:05.755Z,9.668114
2023-02-08T09:26:05.753Z,9.668080
2023-02-08T09:27:05.739Z,9.668069
2023-02-08T09:28:05.766Z,9.668090
2023-02-08T09:29:05.708Z,9.668099
2023-02-08T09:30:05.690Z,9.668116
2023-02-08T09:31:05.782Z,9.668121
2023-02-08T09:32:05.749Z,9.668069
2023-02-08T09:33:05.681Z,9.668071
2023-02-08T09:34:05.683Z,9.668092
2023-02-08T09:35:05.655Z,9.668131
2023-02-08T09:36:05.641Z,9.668079
2023-02-08T09:37:05.656Z,9.668107
2023-02-08T09:38:05.658Z,9.668098
2023-02-08T09:39:05.629Z,9.668013
2023-02-08T09:40:05.628Z,9.667975
2023-02-08T09:41:05.627Z,9.668015
2023-02-08T09:42:05.596Z,9.668054
2023-02-08T09:43:05.602Z,9.667990
2023-02-08T09:44:05.627Z,9.668095
2023-02-08T09:45:05.595Z,9.668055
2023-02-08T09:46:05.584Z,9.668048
2023-02-08T09:47:05.584Z,9.668050
2023-02-08T09:48:05.626Z,9.667989
2023-02-08T09:49:05.574Z,9.667987
2023-02-08T09:50:05.561Z,9.668015
2023-02-08T09:51:05.563Z,9.668086
2023-02-08T09:52:05.539Z,9.668102
2023-02-08T09:53:05.525Z,9.668127
2023-02-08T09:54:05.529Z,9.668146
2023-02-08T09:55:05.549Z,9.668102
2023-02-08T09:56:05.537Z,9.668054
2023-02-08T09:57:05.487Z,9.668040
2023-02-08T09:58:05.503Z,9.668025
2023-02-08T09:59:05.502Z,9.668037
2023-02-08T10:00:05.497Z,9.668000
2023-02-08T10:01:06.105Z,9.668023
2023-02-08T10:02:06.485Z,9.668023
2023-02-08T10:03:05.482Z,9.668019
2023-02-08T10:04:05.509Z,9.668043
2023-02-08T10:05:05.433Z,9.668039
2023-02-08T10:06:05.450Z,9.668049
2023-02-08T10:07:05.448Z,9.668028
2023-02-08T10:08:05.399Z,9.668056
2023-02-08T10:09:05.495Z,9.668046
2023-02-08T10:10:05.399Z,9.668015
2023-02-08T10:11:05.403Z,9.668024
2023-02-08T10:12:05.361Z,9.668002
2023-02-08T10:13:05.437Z,9.668030
2023-02-08T10:14:05.395Z,9.668051
2023-02-08T10:15:05.382Z,9.668052
2023-02-08T10:16:05.386Z,9.668011
2023-02-08T10:17:05.344Z,9.668005
2023-02-08T10:18:05.376Z,9.668028
2023-02-08T10:19:05.321Z,9.668020
2023-02-08T10:20:05.288Z,9.668032
2023-02-08T10:21:05.308Z,9.668007
2023-02-08T10:22:05.335Z,9.668026
2023-02-08T10:23:05.275Z,9.668020
2023-02-08T10:24:05.302Z,9.668020
2023-02-08T10:25:05.306Z,9.668009
2023-02-08T10:26:05.263Z,9.668025
2023-02-08T10:27:05.306Z,9.667997
2023-02-08T10:28:05.397Z,9.668012
2023-02-08T10:29:05.310Z,9.667968
2023-02-08T10:30:05.245Z,9.668000
2023-02-08T10:31:05.320Z,9.667997
2023-02-08T10:32:05.348Z,9.668028
2023-02-08T10:33:05.246Z,9.668017
2023-02-08T10:34:07.490Z,9.668020
2023-02-08T10:35:05.198Z,9.668057
2023-02-08T10:36:05.190Z,9.668020
2023-02-08T10:37:05.214Z,9.668040
2023-02-08T10:38:05.208Z,9.668036
2023-02-08T10:39:05.160Z,9.668036
2023-02-08T10:40:05.156Z,9.668098
2023-02-08T10:41:05.146Z,9.668056
2023-02-08T10:42:05.153Z,9.668022
2023-02-08T10:43:05.139Z,9.668030
2023-02-08T10:44:06.134Z,9.668044
2023-02-08T10:45:12.724Z,9.668025
2023-02-08T10:46:07.204Z,9.668019
2023-02-08T10:47:05.164Z,9.668086
2023-02-08T10:48:05.088Z,9.668047
2023-02-08T10:49:05.075Z,9.668057
2023-02-08T10:50:05.066Z,9.668056
2023-02-08T10:51:05.044Z,9.668050
2023-02-08T10:52:05.047Z,9.668068
2023-02-08T10:53:05.824Z,9.668045
2023-02-08T10:54:05.807Z,9.668030
2023-02-08T10:55:05.055Z,9.668054
2023-02-08T10:56:05.026Z,9.668066
2023-02-08T10:57:04.996Z,9.668046
2023-02-08T10:58:04.986Z,9.668045
2023-02-08T10:59:05.017Z,9.668071
2023-02-08T11:00:05.000Z,9.668044
2023-02-08T11:01:07.305Z,9.668062
2023-02-08T11:02:04.967Z,9.668057
2023-02-08T11:03:04.956Z,9.668050
2023-02-08T11:04:05.093Z,9.668080
2023-02-08T11:05:04.974Z,9.668077
2023-02-08T11:06:04.937Z,9.668054
2023-02-08T11:07:04.923Z,9.668075
2023-02-08T11:08:04.915Z,9.668058
2023-02-08T11:09:04.947Z,9.668059
2023-02-08T11:10:04.907Z,9.668079
2023-02-08T11:11:04.926Z,9.668051
2023-02-08T11:12:05.780Z,9.668021
2023-02-08T11:13:04.885Z,9.668037
2023-02-08T11:14:04.879Z,9.668100
2023-02-08T11:15:04.874Z,9.668109
2023-02-08T11:16:04.859Z,9.668081
2023-02-08T11:17:04.828Z,9.668069
2023-02-08T11:18:04.868Z,9.668094
2023-02-08T11:19:04.826Z,9.668061
2023-02-08T11:20:04.846Z,9.668057
2023-02-08T11:21:04.883Z,9.668003
2023-02-08T11:22:04.841Z,9.668036
2023-02-08T11:23:04.819Z,9.668082
2023-02-08T11:24:04.844Z,9.668076
2023-02-08T11:25:04.798Z,9.668007
2023-02-08T11:26:04.771Z,9.668043
2023-02-08T11:27:04.827Z,9.668023
2023-02-08T11:28:04.770Z,9.668018
2023-02-08T11:29:04.745Z,9.668043
2023-02-08T11:30:04.732Z,9.667985
2023-02-08T11:31:04.741Z,9.667981
2023-02-08T11:32:04.829Z,9.667954
2023-02-08T11:33:04.719Z,9.667978
2023-02-08T11:34:04.713Z,9.667988
2023-02-08T11:35:04.731Z,9.667988
2023-02-08T11:36:04.705Z,9.668022
2023-02-08T11:37:04.726Z,9.668028
2023-02-08T11:38:04.682Z,9.668019
2023-02-08T11:39:05.344Z,9.668072
2023-02-08T11:40:04.663Z,9.667996
2023-02-08T11:41:04.664Z,9.668024
2023-02-08T11:42:04.678Z,9.668015
2023-02-08T11:43:04.713Z,9.668021
2023-02-08T11:44:04.643Z,9.668020
2023-02-08T11:45:04.619Z,9.668007
2023-02-08T11:46:04.663Z,9.668056
2023-02-08T11:47:04.606Z,9.668058
2023-02-08T11:48:04.695Z,9.668068
2023-02-08T11:49:04.666Z,9.668035
2023-02-08T11:50:04.578Z,9.668036
2023-02-08T11:51:04.636Z,9.667999
2023-02-08T11:52:04.572Z,9.668068
2023-02-08T11:53:05.355Z,9.668035
2023-02-08T11:54:04.592Z,9.668028
2023-02-08T11:55:04.573Z,9.668036
2023-02-08T11:56:04.556Z,9.668034
2023-02-08T11:57:04.538Z,9.668051
2023-02-08T11:58:04.544Z,9.668040
2023-02-08T11:59:04.507Z,9.668050
2023-02-08T12:00:04.513Z,9.668016
2023-02-08T12:01:04.504Z,9.668004
2023-02-08T12:02:04.507Z,9.667996
2023-02-08T12:03:04.559Z,9.668000
2023-02-08T12:04:04.482Z,9.668054